Terminal Aerodrome Forecast
Issued by NWS

Home | Current Version | Previous Version | Text Only | Print | Product List | Glossary On
Versions: 1 2 3 4 5 6 7 8 9 10 11 12 13 14 15 16 17 18 19 20 21 22
000
FTUS43 KMQT 030533
TAFCMX
TAF
KCMX 030533Z 0306/0406 08003KT 1/4SM FG VV001
     FM031300 08003KT 1SM BR BKN002
     FM031400 09005KT 4SM BR SCT004
     FM031500 09008KT P6SM FEW150
     FM040500 12005KT 6SM BR SKC=

USA.gov is the U.S. government's official web portal to all federal, state and local government web resources and services.